sensor_id;sensor_type;location;lat;lon;timestamp;temperature;humidity
13998;DHT22;7074;51.508;7.018;2022-08-23T00:01:31;23.00;99.90
13998;DHT22;7074;51.508;7.018;2022-08-23T00:04:02;23.00;99.90
13998;DHT22;7074;51.508;7.018;2022-08-23T00:06:30;23.00;99.90
13998;DHT22;7074;51.508;7.018;2022-08-23T00:08:58;23.00;99.90
13998;DHT22;7074;51.508;7.018;2022-08-23T00:11:28;23.00;99.90
13998;DHT22;7074;51.508;7.018;2022-08-23T00:13:57;23.00;99.90
13998;DHT22;7074;51.508;7.018;2022-08-23T00:16:25;22.90;99.90
13998;DHT22;7074;51.508;7.018;2022-08-23T00:18:55;22.80;99.90
13998;DHT22;7074;51.508;7.018;2022-08-23T00:21:22;22.90;99.90
13998;DHT22;7074;51.508;7.018;2022-08-23T00:23:50;22.90;99.90
13998;DHT22;7074;51.508;7.018;2022-08-23T00:26:17;22.80;99.90
13998;DHT22;7074;51.508;7.018;2022-08-23T00:28:46;22.90;99.90
13998;DHT22;7074;51.508;7.018;2022-08-23T00:31:13;22.80;99.90
13998;DHT22;7074;51.508;7.018;2022-08-23T00:33:40;22.90;99.90
13998;DHT22;7074;51.508;7.018;2022-08-23T00:36:09;22.80;99.90
13998;DHT22;7074;51.508;7.018;2022-08-23T00:38:36;22.80;99.90
13998;DHT22;7074;51.508;7.018;2022-08-23T00:41:04;22.60;99.90
13998;DHT22;7074;51.508;7.018;2022-08-23T00:43:35;22.50;99.90
13998;DHT22;7074;51.508;7.018;2022-08-23T00:46:40;22.60;99.90
13998;DHT22;7074;51.508;7.018;2022-08-23T00:49:26;22.60;99.90
13998;DHT22;7074;51.508;7.018;2022-08-23T00:52:01;22.60;99.90
13998;DHT22;7074;51.508;7.018;2022-08-23T00:54:34;22.60;99.90
13998;DHT22;7074;51.508;7.018;2022-08-23T00:57:05;22.40;99.90
13998;DHT22;7074;51.508;7.018;2022-08-23T00:59:34;22.30;99.90
13998;DHT22;7074;51.508;7.018;2022-08-23T01:02:03;22.30;99.90
13998;DHT22;7074;51.508;7.018;2022-08-23T01:04:33;22.20;99.90
13998;DHT22;7074;51.508;7.018;2022-08-23T01:07:11;22.00;99.90
13998;DHT22;7074;51.508;7.018;2022-08-23T01:09:42;21.90;99.90
13998;DHT22;7074;51.508;7.018;2022-08-23T01:12:13;21.90;99.90
13998;DHT22;7074;51.508;7.018;2022-08-23T01:14:47;22.00;99.90
13998;DHT22;7074;51.508;7.018;2022-08-23T01:17:18;22.00;99.90
13998;DHT22;7074;51.508;7.018;2022-08-23T01:19:50;21.90;99.90
13998;DHT22;7074;51.508;7.018;2022-08-23T01:22:25;22.00;99.90
13998;DHT22;7074;51.508;7.018;2022-08-23T01:24:56;21.90;99.90
13998;DHT22;7074;51.508;7.018;2022-08-23T01:27:24;21.80;99.90
13998;DHT22;7074;51.508;7.018;2022-08-23T01:29:52;21.80;99.90
13998;DHT22;7074;51.508;7.018;2022-08-23T01:32:19;21.80;99.90
13998;DHT22;7074;51.508;7.018;2022-08-23T01:34:48;21.70;99.90
13998;DHT22;7074;51.508;7.018;2022-08-23T01:37:15;21.70;99.90
13998;DHT22;7074;51.508;7.018;2022-08-23T01:39:42;21.70;99.90
13998;DHT22;7074;51.508;7.018;2022-08-23T01:42:14;21.70;99.90
13998;DHT22;7074;51.508;7.018;2022-08-23T01:44:41;21.50;99.90
13998;DHT22;7074;51.508;7.018;2022-08-23T01:47:09;21.50;99.90
13998;DHT22;7074;51.508;7.018;2022-08-23T01:49:37;21.40;99.90
13998;DHT22;7074;51.508;7.018;2022-08-23T01:52:04;21.40;99.90
13998;DHT22;7074;51.508;7.018;2022-08-23T01:54:31;21.30;99.90
13998;DHT22;7074;51.508;7.018;2022-08-23T01:56:59;21.30;99.90
13998;DHT22;7074;51.508;7.018;2022-08-23T01:59:28;21.30;99.90
13998;DHT22;7074;51.508;7.018;2022-08-23T02:01:55;21.30;99.90
13998;DHT22;7074;51.508;7.018;2022-08-23T02:04:23;21.30;99.90
13998;DHT22;7074;51.508;7.018;2022-08-23T02:06:50;21.30;99.90
13998;DHT22;7074;51.508;7.018;2022-08-23T02:09:20;21.20;99.90
13998;DHT22;7074;51.508;7.018;2022-08-23T02:11:48;21.10;99.90
13998;DHT22;7074;51.508;7.018;2022-08-23T02:14:18;21.00;99.90
13998;DHT22;7074;51.508;7.018;2022-08-23T02:16:54;20.90;99.90
13998;DHT22;7074;51.508;7.018;2022-08-23T02:19:24;20.90;99.90
13998;DHT22;7074;51.508;7.018;2022-08-23T02:21:51;20.80;99.90
13998;DHT22;7074;51.508;7.018;2022-08-23T02:24:22;20.80;99.90
13998;DHT22;7074;51.508;7.018;2022-08-23T02:26:52;20.90;99.90
13998;DHT22;7074;51.508;7.018;2022-08-23T02:29:21;20.80;99.90
13998;DHT22;7074;51.508;7.018;2022-08-23T02:31:50;20.70;99.90
13998;DHT22;7074;51.508;7.018;2022-08-23T02:34:18;20.60;99.90
13998;DHT22;7074;51.508;7.018;2022-08-23T02:36:46;20.60;99.90
13998;DHT22;7074;51.508;7.018;2022-08-23T02:39:17;20.50;99.90
13998;DHT22;7074;51.508;7.018;2022-08-23T02:41:44;20.60;99.90
13998;DHT22;7074;51.508;7.018;2022-08-23T02:44:12;20.50;99.90
13998;DHT22;7074;51.508;7.018;2022-08-23T02:46:40;20.50;99.90
13998;DHT22;7074;51.508;7.018;2022-08-23T02:49:08;20.40;99.90
13998;DHT22;7074;51.508;7.018;2022-08-23T02:51:38;20.50;99.90
13998;DHT22;7074;51.508;7.018;2022-08-23T02:54:05;20.50;99.90
13998;DHT22;7074;51.508;7.018;2022-08-23T02:56:34;20.40;99.90
13998;DHT22;7074;51.508;7.018;2022-08-23T02:59:02;20.40;99.90
13998;DHT22;7074;51.508;7.018;2022-08-23T03:01:32;20.30;99.90
13998;DHT22;7074;51.508;7.018;2022-08-23T03:04:11;20.30;99.90
13998;DHT22;7074;51.508;7.018;2022-08-23T03:06:40;20.30;99.90
13998;DHT22;7074;51.508;7.018;2022-08-23T03:09:08;20.30;99.90
13998;DHT22;7074;51.508;7.018;2022-08-23T03:11:36;20.20;99.90
13998;DHT22;7074;51.508;7.018;2022-08-23T03:14:04;20.20;99.90
13998;DHT22;7074;51.508;7.018;2022-08-23T03:16:32;20.20;99.90
13998;DHT22;7074;51.508;7.018;2022-08-23T03:19:00;20.20;99.90
13998;DHT22;7074;51.508;7.018;2022-08-23T03:21:28;20.20;99.90
13998;DHT22;7074;51.508;7.018;2022-08-23T03:23:57;20.30;99.90
13998;DHT22;7074;51.508;7.018;2022-08-23T03:26:24;20.10;99.90
13998;DHT22;7074;51.508;7.018;2022-08-23T03:28:52;20.10;99.90
13998;DHT22;7074;51.508;7.018;2022-08-23T03:31:21;20.20;99.90
13998;DHT22;7074;51.508;7.018;2022-08-23T03:34:08;20.20;99.90
13998;DHT22;7074;51.508;7.018;2022-08-23T03:36:37;20.20;99.90
13998;DHT22;7074;51.508;7.018;2022-08-23T03:39:06;20.20;99.90
13998;DHT22;7074;51.508;7.018;2022-08-23T03:41:33;20.10;99.90
13998;DHT22;7074;51.508;7.018;2022-08-23T03:44:01;20.10;99.90
13998;DHT22;7074;51.508;7.018;2022-08-23T03:46:31;20.00;99.90
13998;DHT22;7074;51.508;7.018;2022-08-23T03:49:01;19.90;99.90
13998;DHT22;7074;51.508;7.018;2022-08-23T03:51:37;19.80;99.90
13998;DHT22;7074;51.508;7.018;2022-08-23T03:54:06;19.80;99.90
13998;DHT22;7074;51.508;7.018;2022-08-23T03:56:36;19.80;99.90
13998;DHT22;7074;51.508;7.018;2022-08-23T03:59:06;19.70;99.90
13998;DHT22;7074;51.508;7.018;2022-08-23T04:01:33;19.70;99.90
13998;DHT22;7074;51.508;7.018;2022-08-23T04:04:03;19.70;99.90
13998;DHT22;7074;51.508;7.018;2022-08-23T04:06:30;19.70;99.90
13998;DHT22;7074;51.508;7.018;2022-08-23T04:08:58;19.70;99.90
13998;DHT22;7074;51.508;7.018;2022-08-23T04:11:28;19.60;99.90
13998;DHT22;7074;51.508;7.018;2022-08-23T04:14:01;19.60;99.90
13998;DHT22;7074;51.508;7.018;2022-08-23T04:16:29;19.60;99.90
13998;DHT22;7074;51.508;7.018;2022-08-23T04:19:02;19.60;99.90
13998;DHT22;7074;51.508;7.018;2022-08-23T04:21:30;19.50;99.90
13998;DHT22;7074;51.508;7.018;2022-08-23T04:23:58;19.50;99.90
13998;DHT22;7074;51.508;7.018;2022-08-23T04:26:25;19.50;99.90
13998;DHT22;7074;51.508;7.018;2022-08-23T04:28:55;19.50;99.90
13998;DHT22;7074;51.508;7.018;2022-08-23T04:31:23;19.50;99.90
13998;DHT22;7074;51.508;7.018;2022-08-23T04:33:53;19.50;99.90
13998;DHT22;7074;51.508;7.018;2022-08-23T04:36:21;19.40;99.90
13998;DHT22;7074;51.508;7.018;2022-08-23T04:38:49;19.40;99.90
13998;DHT22;7074;51.508;7.018;2022-08-23T04:41:17;19.40;99.90
13998;DHT22;7074;51.508;7.018;2022-08-23T04:44:04;19.30;99.90
13998;DHT22;7074;51.508;7.018;2022-08-23T04:46:33;19.30;99.90
13998;DHT22;7074;51.508;7.018;2022-08-23T04:49:02;19.30;99.90
13998;DHT22;7074;51.508;7.018;2022-08-23T04:51:30;19.30;99.90
13998;DHT22;7074;51.508;7.018;2022-08-23T04:53:58;19.40;99.90
13998;DHT22;7074;51.508;7.018;2022-08-23T04:56:38;19.30;99.90
13998;DHT22;7074;51.508;7.018;2022-08-23T04:59:08;19.40;99.90
13998;DHT22;7074;51.508;7.018;2022-08-23T05:01:37;19.40;99.90
13998;DHT22;7074;51.508;7.018;2022-08-23T05:04:04;19.40;99.90
13998;DHT22;7074;51.508;7.018;2022-08-23T05:06:35;19.40;99.90
13998;DHT22;7074;51.508;7.018;2022-08-23T05:09:04;19.40;99.90
13998;DHT22;7074;51.508;7.018;2022-08-23T05:11:33;19.40;99.90
13998;DHT22;7074;51.508;7.018;2022-08-23T05:14:01;19.50;99.90
13998;DHT22;7074;51.508;7.018;2022-08-23T05:16:30;19.50;99.90
13998;DHT22;7074;51.508;7.018;2022-08-23T05:19:06;19.50;99.90
13998;DHT22;7074;51.508;7.018;2022-08-23T05:21:39;19.50;99.90
13998;DHT22;7074;51.508;7.018;2022-08-23T05:24:06;19.50;99.90
13998;DHT22;7074;51.508;7.018;2022-08-23T05:26:34;19.60;99.90
13998;DHT22;7074;51.508;7.018;2022-08-23T05:29:03;19.60;99.90
13998;DHT22;7074;51.508;7.018;2022-08-23T05:31:38;19.70;99.90
13998;DHT22;7074;51.508;7.018;2022-08-23T05:34:06;19.70;99.90
13998;DHT22;7074;51.508;7.018;2022-08-23T05:36:40;19.80;99.90
13998;DHT22;7074;51.508;7.018;2022-08-23T05:39:08;19.90;99.90
13998;DHT22;7074;51.508;7.018;2022-08-23T05:41:37;20.00;99.90
13998;DHT22;7074;51.508;7.018;2022-08-23T05:44:08;20.10;99.90
13998;DHT22;7074;51.508;7.018;2022-08-23T05:46:38;20.20;99.90
13998;DHT22;7074;51.508;7.018;2022-08-23T05:49:30;20.30;99.90
13998;DHT22;7074;51.508;7.018;2022-08-23T05:51:58;20.40;99.90
13998;DHT22;7074;51.508;7.018;2022-08-23T05:54:30;20.60;99.90
13998;DHT22;7074;51.508;7.018;2022-08-23T05:57:14;20.70;99.90
13998;DHT22;7074;51.508;7.018;2022-08-23T05:59:42;20.90;99.90
13998;DHT22;7074;51.508;7.018;2022-08-23T06:02:10;20.90;99.90
13998;DHT22;7074;51.508;7.018;2022-08-23T06:04:38;21.00;99.90
13998;DHT22;7074;51.508;7.018;2022-08-23T06:07:06;21.10;99.90
13998;DHT22;7074;51.508;7.018;2022-08-23T06:09:36;21.30;99.90
13998;DHT22;7074;51.508;7.018;2022-08-23T06:12:04;21.40;99.90
13998;DHT22;7074;51.508;7.018;2022-08-23T06:14:31;21.50;99.90
13998;DHT22;7074;51.508;7.018;2022-08-23T06:16:59;21.60;99.90
13998;DHT22;7074;51.508;7.018;2022-08-23T06:19:28;21.70;99.90
13998;DHT22;7074;51.508;7.018;2022-08-23T06:21:58;21.80;99.90
13998;DHT22;7074;51.508;7.018;2022-08-23T06:24:33;21.90;99.90
13998;DHT22;7074;51.508;7.018;2022-08-23T06:27:10;21.90;99.90
13998;DHT22;7074;51.508;7.018;2022-08-23T06:29:37;22.20;99.90
13998;DHT22;7074;51.508;7.018;2022-08-23T06:32:31;22.30;99.90
13998;DHT22;7074;51.508;7.018;2022-08-23T06:35:19;22.50;99.90
13998;DHT22;7074;51.508;7.018;2022-08-23T06:37:53;22.60;99.90
13998;DHT22;7074;51.508;7.018;2022-08-23T06:40:40;22.70;99.90
13998;DHT22;7074;51.508;7.018;2022-08-23T06:43:37;22.60;99.90
13998;DHT22;7074;51.508;7.018;2022-08-23T06:46:19;22.90;99.90
13998;DHT22;7074;51.508;7.018;2022-08-23T06:48:47;23.00;99.90
13998;DHT22;7074;51.508;7.018;2022-08-23T06:51:21;23.00;99.90
13998;DHT22;7074;51.508;7.018;2022-08-23T06:53:53;23.30;99.90
13998;DHT22;7074;51.508;7.018;2022-08-23T06:56:40;23.50;99.90
13998;DHT22;7074;51.508;7.018;2022-08-23T06:59:17;23.70;99.90
13998;DHT22;7074;51.508;7.018;2022-08-23T07:02:11;23.90;99.90
13998;DHT22;7074;51.508;7.018;2022-08-23T07:04:58;24.00;99.90
13998;DHT22;7074;51.508;7.018;2022-08-23T07:07:46;24.20;99.90
13998;DHT22;7074;51.508;7.018;2022-08-23T07:10:14;24.30;99.90
13998;DHT22;7074;51.508;7.018;2022-08-23T07:12:41;24.40;99.90
13998;DHT22;7074;51.508;7.018;2022-08-23T07:15:12;24.50;99.90
13998;DHT22;7074;51.508;7.018;2022-08-23T07:17:44;24.60;99.80
13998;DHT22;7074;51.508;7.018;2022-08-23T07:20:11;24.60;99.00
13998;DHT22;7074;51.508;7.018;2022-08-23T07:22:41;24.70;98.90
13998;DHT22;7074;51.508;7.018;2022-08-23T07:25:11;24.80;98.00
13998;DHT22;7074;51.508;7.018;2022-08-23T07:27:40;24.90;98.60
13998;DHT22;7074;51.508;7.018;2022-08-23T07:30:09;25.00;98.10
13998;DHT22;7074;51.508;7.018;2022-08-23T07:32:38;25.30;98.40
13998;DHT22;7074;51.508;7.018;2022-08-23T07:35:23;25.40;98.00
13998;DHT22;7074;51.508;7.018;2022-08-23T07:37:54;25.50;96.50
13998;DHT22;7074;51.508;7.018;2022-08-23T07:40:26;25.60;97.00
13998;DHT22;7074;51.508;7.018;2022-08-23T07:42:55;25.60;96.10
13998;DHT22;7074;51.508;7.018;2022-08-23T07:45:27;25.60;96.70
13998;DHT22;7074;51.508;7.018;2022-08-23T07:49:04;25.80;96.70
13998;DHT22;7074;51.508;7.018;2022-08-23T07:51:57;26.00;96.20
13998;DHT22;7074;51.508;7.018;2022-08-23T07:54:37;26.20;96.30
13998;DHT22;7074;51.508;7.018;2022-08-23T07:57:48;26.30;95.50
13998;DHT22;7074;51.508;7.018;2022-08-23T08:01:20;26.40;94.90
13998;DHT22;7074;51.508;7.018;2022-08-23T08:10:56;26.60;94.70
13998;DHT22;7074;51.508;7.018;2022-08-23T08:13:36;26.60;94.00
13998;DHT22;7074;51.508;7.018;2022-08-23T08:16:05;26.60;93.50
13998;DHT22;7074;51.508;7.018;2022-08-23T08:18:35;26.70;93.60
13998;DHT22;7074;51.508;7.018;2022-08-23T08:21:21;26.70;93.60
13998;DHT22;7074;51.508;7.018;2022-08-23T08:24:03;26.90;93.80
13998;DHT22;7074;51.508;7.018;2022-08-23T08:26:44;27.00;93.30
13998;DHT22;7074;51.508;7.018;2022-08-23T08:29:13;27.10;92.90
13998;DHT22;7074;51.508;7.018;2022-08-23T08:31:43;27.30;92.90
13998;DHT22;7074;51.508;7.018;2022-08-23T08:34:12;27.30;92.20
13998;DHT22;7074;51.508;7.018;2022-08-23T08:37:10;27.30;92.10
13998;DHT22;7074;51.508;7.018;2022-08-23T08:40:46;27.20;92.20
13998;DHT22;7074;51.508;7.018;2022-08-23T08:43:33;27.30;92.40
13998;DHT22;7074;51.508;7.018;2022-08-23T08:46:42;27.40;91.50
13998;DHT22;7074;51.508;7.018;2022-08-23T08:49:44;27.00;91.00
13998;DHT22;7074;51.508;7.018;2022-08-23T08:52:56;27.20;91.60
13998;DHT22;7074;51.508;7.018;2022-08-23T08:56:11;27.40;91.10
13998;DHT22;7074;51.508;7.018;2022-08-23T09:02:20;27.90;90.50
13998;DHT22;7074;51.508;7.018;2022-08-23T09:04:51;28.00;90.00
13998;DHT22;7074;51.508;7.018;2022-08-23T09:22:13;28.40;86.50
13998;DHT22;7074;51.508;7.018;2022-08-23T09:25:48;28.60;85.60
13998;DHT22;7074;51.508;7.018;2022-08-23T09:28:47;28.70;84.70
13998;DHT22;7074;51.508;7.018;2022-08-23T09:31:59;29.00;85.90
13998;DHT22;7074;51.508;7.018;2022-08-23T09:35:07;29.10;82.60
13998;DHT22;7074;51.508;7.018;2022-08-23T09:38:16;28.80;83.80
13998;DHT22;7074;51.508;7.018;2022-08-23T09:41:26;29.10;82.50
13998;DHT22;7074;51.508;7.018;2022-08-23T09:44:07;29.20;82.40
13998;DHT22;7074;51.508;7.018;2022-08-23T09:47:05;29.40;82.00
13998;DHT22;7074;51.508;7.018;2022-08-23T09:57:37;29.30;79.20
13998;DHT22;7074;51.508;7.018;2022-08-23T10:00:34;29.40;77.20
13998;DHT22;7074;51.508;7.018;2022-08-23T10:03:25;29.50;78.00
13998;DHT22;7074;51.508;7.018;2022-08-23T10:22:20;30.00;72.80
13998;DHT22;7074;51.508;7.018;2022-08-23T10:25:12;30.00;73.00
13998;DHT22;7074;51.508;7.018;2022-08-23T10:27:47;30.00;73.50
13998;DHT22;7074;51.508;7.018;2022-08-23T10:30:40;30.00;71.70
13998;DHT22;7074;51.508;7.018;2022-08-23T10:37:22;30.00;71.20
13998;DHT22;7074;51.508;7.018;2022-08-23T10:43:30;30.30;68.90
13998;DHT22;7074;51.508;7.018;2022-08-23T10:46:55;30.40;69.20
13998;DHT22;7074;51.508;7.018;2022-08-23T10:54:34;30.80;68.80
13998;DHT22;7074;51.508;7.018;2022-08-23T11:09:52;31.10;64.80
13998;DHT22;7074;51.508;7.018;2022-08-23T11:12:28;31.10;63.30
13998;DHT22;7074;51.508;7.018;2022-08-23T11:15:12;30.90;64.60
13998;DHT22;7074;51.508;7.018;2022-08-23T11:18:05;31.10;63.90
13998;DHT22;7074;51.508;7.018;2022-08-23T11:20:58;31.10;64.10
13998;DHT22;7074;51.508;7.018;2022-08-23T11:23:52;31.10;63.30
13998;DHT22;7074;51.508;7.018;2022-08-23T11:29:32;31.10;62.80
13998;DHT22;7074;51.508;7.018;2022-08-23T11:32:40;31.30;61.80
13998;DHT22;7074;51.508;7.018;2022-08-23T11:35:32;31.30;60.40
13998;DHT22;7074;51.508;7.018;2022-08-23T11:38:03;31.50;60.50
13998;DHT22;7074;51.508;7.018;2022-08-23T11:43:36;31.40;58.70
13998;DHT22;7074;51.508;7.018;2022-08-23T11:46:36;31.50;59.50
13998;DHT22;7074;51.508;7.018;2022-08-23T11:52:32;31.80;59.00
13998;DHT22;7074;51.508;7.018;2022-08-23T11:55:26;31.80;58.40
13998;DHT22;7074;51.508;7.018;2022-08-23T11:58:10;32.00;58.60
13998;DHT22;7074;51.508;7.018;2022-08-23T12:01:04;32.20;59.00
13998;DHT22;7074;51.508;7.018;2022-08-23T12:03:39;32.20;58.20
13998;DHT22;7074;51.508;7.018;2022-08-23T12:06:14;31.80;58.00
13998;DHT22;7074;51.508;7.018;2022-08-23T12:09:01;31.50;58.10
13998;DHT22;7074;51.508;7.018;2022-08-23T12:14:37;31.90;56.60
13998;DHT22;7074;51.508;7.018;2022-08-23T12:20:26;32.40;57.70
13998;DHT22;7074;51.508;7.018;2022-08-23T12:23:11;32.70;57.10
13998;DHT22;7074;51.508;7.018;2022-08-23T12:25:40;32.80;57.00
13998;DHT22;7074;51.508;7.018;2022-08-23T12:28:38;32.20;56.60
13998;DHT22;7074;51.508;7.018;2022-08-23T12:31:15;32.70;57.00
13998;DHT22;7074;51.508;7.018;2022-08-23T12:33:59;32.40;55.60
13998;DHT22;7074;51.508;7.018;2022-08-23T12:36:37;32.70;56.10
13998;DHT22;7074;51.508;7.018;2022-08-23T12:39:06;32.70;55.50
13998;DHT22;7074;51.508;7.018;2022-08-23T12:41:51;32.80;56.30
13998;DHT22;7074;51.508;7.018;2022-08-23T12:44:23;33.10;54.50
13998;DHT22;7074;51.508;7.018;2022-08-23T12:46:51;33.20;53.80
13998;DHT22;7074;51.508;7.018;2022-08-23T12:49:24;33.30;54.10
13998;DHT22;7074;51.508;7.018;2022-08-23T12:51:56;32.90;52.00
13998;DHT22;7074;51.508;7.018;2022-08-23T12:54:35;33.00;52.70
13998;DHT22;7074;51.508;7.018;2022-08-23T12:57:03;33.20;52.00
13998;DHT22;7074;51.508;7.018;2022-08-23T12:59:40;33.00;51.90
13998;DHT22;7074;51.508;7.018;2022-08-23T13:02:11;33.30;52.30
13998;DHT22;7074;51.508;7.018;2022-08-23T13:04:41;33.40;51.60
13998;DHT22;7074;51.508;7.018;2022-08-23T13:07:14;33.20;51.90
13998;DHT22;7074;51.508;7.018;2022-08-23T13:09:44;33.40;51.20
13998;DHT22;7074;51.508;7.018;2022-08-23T13:12:12;33.50;51.90
13998;DHT22;7074;51.508;7.018;2022-08-23T13:14:45;33.60;51.20
13998;DHT22;7074;51.508;7.018;2022-08-23T13:17:17;33.80;51.70
13998;DHT22;7074;51.508;7.018;2022-08-23T13:19:46;33.40;51.70
13998;DHT22;7074;51.508;7.018;2022-08-23T13:22:22;33.60;51.90
13998;DHT22;7074;51.508;7.018;2022-08-23T13:25:03;33.70;51.60
13998;DHT22;7074;51.508;7.018;2022-08-23T13:27:33;33.80;51.50
13998;DHT22;7074;51.508;7.018;2022-08-23T13:30:03;33.70;51.30
13998;DHT22;7074;51.508;7.018;2022-08-23T13:32:48;33.90;51.30
13998;DHT22;7074;51.508;7.018;2022-08-23T13:35:25;33.70;51.40
13998;DHT22;7074;51.508;7.018;2022-08-23T13:37:57;33.70;52.20
13998;DHT22;7074;51.508;7.018;2022-08-23T13:40:29;33.90;51.70
13998;DHT22;7074;51.508;7.018;2022-08-23T13:43:01;33.80;51.80
13998;DHT22;7074;51.508;7.018;2022-08-23T13:45:31;33.80;52.30
13998;DHT22;7074;51.508;7.018;2022-08-23T13:48:00;33.90;52.10
13998;DHT22;7074;51.508;7.018;2022-08-23T13:50:30;34.10;51.80
13998;DHT22;7074;51.508;7.018;2022-08-23T13:53:00;34.30;50.50
13998;DHT22;7074;51.508;7.018;2022-08-23T13:55:28;34.20;50.80
13998;DHT22;7074;51.508;7.018;2022-08-23T13:57:57;33.40;50.80
13998;DHT22;7074;51.508;7.018;2022-08-23T14:00:25;33.60;51.40
13998;DHT22;7074;51.508;7.018;2022-08-23T14:02:52;33.80;51.70
13998;DHT22;7074;51.508;7.018;2022-08-23T14:05:21;33.90;51.70
13998;DHT22;7074;51.508;7.018;2022-08-23T14:07:49;33.70;52.00
13998;DHT22;7074;51.508;7.018;2022-08-23T14:10:20;33.60;52.50
13998;DHT22;7074;51.508;7.018;2022-08-23T14:12:50;33.40;52.50
13998;DHT22;7074;51.508;7.018;2022-08-23T14:15:18;33.10;53.00
13998;DHT22;7074;51.508;7.018;2022-08-23T14:31:43;33.80;53.00
13998;DHT22;7074;51.508;7.018;2022-08-23T14:34:11;33.30;52.20
13998;DHT22;7074;51.508;7.018;2022-08-23T14:36:38;33.60;52.90
13998;DHT22;7074;51.508;7.018;2022-08-23T14:51:29;33.50;53.00
13998;DHT22;7074;51.508;7.018;2022-08-23T14:53:59;33.30;53.40
13998;DHT22;7074;51.508;7.018;2022-08-23T14:56:28;33.40;53.10
13998;DHT22;7074;51.508;7.018;2022-08-23T14:58:56;33.20;52.80
13998;DHT22;7074;51.508;7.018;2022-08-23T15:01:24;33.20;53.40
13998;DHT22;7074;51.508;7.018;2022-08-23T15:03:51;32.90;54.60
13998;DHT22;7074;51.508;7.018;2022-08-23T15:06:21;33.00;53.60
13998;DHT22;7074;51.508;7.018;2022-08-23T15:08:48;33.30;53.80
13998;DHT22;7074;51.508;7.018;2022-08-23T15:11:16;32.90;54.20
13998;DHT22;7074;51.508;7.018;2022-08-23T15:13:43;33.20;53.80
13998;DHT22;7074;51.508;7.018;2022-08-23T15:16:13;33.40;53.40
13998;DHT22;7074;51.508;7.018;2022-08-23T15:18:43;33.50;53.10
13998;DHT22;7074;51.508;7.018;2022-08-23T15:21:11;33.60;53.70
13998;DHT22;7074;51.508;7.018;2022-08-23T15:23:41;33.60;53.50
13998;DHT22;7074;51.508;7.018;2022-08-23T15:26:16;33.50;53.40
13998;DHT22;7074;51.508;7.018;2022-08-23T15:28:45;33.20;53.40
13998;DHT22;7074;51.508;7.018;2022-08-23T15:31:13;33.20;54.00
13998;DHT22;7074;51.508;7.018;2022-08-23T15:33:41;33.00;53.90
13998;DHT22;7074;51.508;7.018;2022-08-23T15:36:10;33.00;54.60
13998;DHT22;7074;51.508;7.018;2022-08-23T15:38:38;33.10;54.00
13998;DHT22;7074;51.508;7.018;2022-08-23T15:41:08;32.90;54.20
13998;DHT22;7074;51.508;7.018;2022-08-23T15:43:35;33.10;54.70
13998;DHT22;7074;51.508;7.018;2022-08-23T15:46:05;32.90;54.10
13998;DHT22;7074;51.508;7.018;2022-08-23T15:48:36;32.90;54.30
13998;DHT22;7074;51.508;7.018;2022-08-23T15:51:04;32.90;54.70
13998;DHT22;7074;51.508;7.018;2022-08-23T15:53:32;32.70;54.60
13998;DHT22;7074;51.508;7.018;2022-08-23T15:56:00;32.60;55.20
13998;DHT22;7074;51.508;7.018;2022-08-23T15:58:29;32.60;55.60
13998;DHT22;7074;51.508;7.018;2022-08-23T16:00:57;32.60;55.00
13998;DHT22;7074;51.508;7.018;2022-08-23T16:03:24;32.70;55.20
13998;DHT22;7074;51.508;7.018;2022-08-23T16:05:53;32.80;55.60
13998;DHT22;7074;51.508;7.018;2022-08-23T16:08:22;32.80;55.30
13998;DHT22;7074;51.508;7.018;2022-08-23T16:10:51;32.80;55.40
13998;DHT22;7074;51.508;7.018;2022-08-23T16:13:19;32.80;55.90
13998;DHT22;7074;51.508;7.018;2022-08-23T16:15:48;32.70;55.30
13998;DHT22;7074;51.508;7.018;2022-08-23T16:18:15;32.70;55.20
13998;DHT22;7074;51.508;7.018;2022-08-23T16:20:44;32.80;55.20
13998;DHT22;7074;51.508;7.018;2022-08-23T16:23:11;32.70;55.80
13998;DHT22;7074;51.508;7.018;2022-08-23T16:25:39;32.70;55.60
13998;DHT22;7074;51.508;7.018;2022-08-23T16:28:06;32.60;55.90
13998;DHT22;7074;51.508;7.018;2022-08-23T16:30:34;32.60;56.60
13998;DHT22;7074;51.508;7.018;2022-08-23T16:33:03;32.60;56.00
13998;DHT22;7074;51.508;7.018;2022-08-23T16:35:30;32.50;56.20
13998;DHT22;7074;51.508;7.018;2022-08-23T16:37:57;32.30;55.90
13998;DHT22;7074;51.508;7.018;2022-08-23T16:40:25;32.30;56.20
13998;DHT22;7074;51.508;7.018;2022-08-23T16:42:52;32.20;57.20
13998;DHT22;7074;51.508;7.018;2022-08-23T16:45:21;32.00;57.30
13998;DHT22;7074;51.508;7.018;2022-08-23T16:47:48;32.00;57.70
13998;DHT22;7074;51.508;7.018;2022-08-23T16:50:17;32.00;57.40
13998;DHT22;7074;51.508;7.018;2022-08-23T16:52:44;32.00;57.80
13998;DHT22;7074;51.508;7.018;2022-08-23T16:55:11;31.90;58.10
13998;DHT22;7074;51.508;7.018;2022-08-23T16:57:39;31.90;57.80
13998;DHT22;7074;51.508;7.018;2022-08-23T17:00:09;31.90;58.00
13998;DHT22;7074;51.508;7.018;2022-08-23T17:02:38;31.70;57.80
13998;DHT22;7074;51.508;7.018;2022-08-23T17:05:08;31.60;58.50
13998;DHT22;7074;51.508;7.018;2022-08-23T17:07:37;31.60;58.60
13998;DHT22;7074;51.508;7.018;2022-08-23T17:10:07;31.50;58.90
13998;DHT22;7074;51.508;7.018;2022-08-23T17:12:38;31.50;58.90
13998;DHT22;7074;51.508;7.018;2022-08-23T17:15:08;31.30;59.30
13998;DHT22;7074;51.508;7.018;2022-08-23T17:17:35;31.30;59.00
13998;DHT22;7074;51.508;7.018;2022-08-23T17:20:04;31.20;59.30
13998;DHT22;7074;51.508;7.018;2022-08-23T17:22:32;31.20;59.60
13998;DHT22;7074;51.508;7.018;2022-08-23T17:25:00;31.10;59.80
13998;DHT22;7074;51.508;7.018;2022-08-23T17:27:29;31.10;60.40
13998;DHT22;7074;51.508;7.018;2022-08-23T17:29:56;31.10;59.80
13998;DHT22;7074;51.508;7.018;2022-08-23T17:32:24;31.00;59.80
13998;DHT22;7074;51.508;7.018;2022-08-23T17:34:51;30.90;60.30
13998;DHT22;7074;51.508;7.018;2022-08-23T17:37:21;30.90;60.70
13998;DHT22;7074;51.508;7.018;2022-08-23T17:39:49;30.90;60.60
13998;DHT22;7074;51.508;7.018;2022-08-23T17:42:18;30.80;60.80
13998;DHT22;7074;51.508;7.018;2022-08-23T17:44:46;30.80;61.80
13998;DHT22;7074;51.508;7.018;2022-08-23T17:47:14;30.70;61.50
13998;DHT22;7074;51.508;7.018;2022-08-23T17:49:43;30.70;61.30
13998;DHT22;7074;51.508;7.018;2022-08-23T17:52:11;30.70;61.40
13998;DHT22;7074;51.508;7.018;2022-08-23T17:54:39;30.60;62.00
13998;DHT22;7074;51.508;7.018;2022-08-23T17:57:07;30.60;62.20
13998;DHT22;7074;51.508;7.018;2022-08-23T17:59:36;30.50;62.70
13998;DHT22;7074;51.508;7.018;2022-08-23T18:02:04;30.40;62.50
13998;DHT22;7074;51.508;7.018;2022-08-23T18:04:34;30.40;62.50
13998;DHT22;7074;51.508;7.018;2022-08-23T18:07:04;30.40;63.40
13998;DHT22;7074;51.508;7.018;2022-08-23T18:09:32;30.30;63.10
13998;DHT22;7074;51.508;7.018;2022-08-23T18:12:00;30.20;63.20
13998;DHT22;7074;51.508;7.018;2022-08-23T18:14:27;30.20;63.50
13998;DHT22;7074;51.508;7.018;2022-08-23T18:16:56;30.20;63.40
13998;DHT22;7074;51.508;7.018;2022-08-23T18:19:23;30.30;63.50
13998;DHT22;7074;51.508;7.018;2022-08-23T18:21:52;30.20;64.90
13998;DHT22;7074;51.508;7.018;2022-08-23T18:24:20;30.20;64.40